METAR AND TAF INFORMATION
METAR FOR MPTO
ADDS - METARS form results

(1931 UTC 26 April 2018)
Data provider http://aviationweather.gov/adds/metars/
 
METAR text: MPTO 261923Z 34004KT 8000 -RA SCT017CB BKN070 25/24 Q1011 RETS RWY DAMP TEMPO 5000 TSRA
Conditions at: MPTO (TOCUMEN , PA) observed 1923 UTC 26 April 2018
Temperature: 25.0°C (77°F)
Dewpoint: 24.0°C (75°F) [RH = 94%]
Pressure (altimeter): 29.85 inches Hg (1011.0 mb)
Winds: from the NNW (340 degrees) at 5 MPH (4 knots; 2.1 m/s)
Visibility: 5 miles (8 km)
Ceiling: 7000 feet AGL
Clouds: scattered clouds at 1700 feet AGL
broken clouds at 7000 feet AGL
Weather: -RA  (light rain)

METAR text: MPTO 261900Z 36007KT 5000 TSRA SCT015CB BKN080 25/24 Q1010 RWY WET NOSIG
Conditions at: MPTO (TOCUMEN , PA) observed 1900 UTC 26 April 2018
Temperature: 25.0°C (77°F)
Dewpoint: 24.0°C (75°F) [RH = 94%]
Pressure (altimeter): 29.82 inches Hg (1010.0 mb)
Winds: from the N (360 degrees) at 8 MPH (7 knots; 3.6 m/s)
Visibility: 3 miles (5 km)
Ceiling: 8000 feet AGL
Clouds: scattered clouds at 1500 feet AGL
broken clouds at 8000 feet AGL
Weather: TSRA  (rain associated with thunderstorm(s))

Forecast for: MPTO (TOCUMEN , PA)
Text: TAF MPTO 261600Z 2618/2724 20008KT 9999 SCT018 SCT090
Forecast period: 1800 UTC 26 April 2018 to 0000 UTC 28 April 2018
Forecast type: FROM: standard forecast or significant change
Winds: from the SSW (200 degrees) at 9 MPH (8 knots; 4.2 m/s)
Visibility: 6 or more miles (10+ km)
Clouds: scattered clouds at 1800 feet AGL
scattered clouds at 9000 feet AGL
Weather: no significant weather forecast for this period
Forecast for: MPTO (TOCUMEN , PA)
Text: TAF MPTO 261600Z 2618/2724 20008KT 9999 SCT018 SCT090
Forecast period: 1800 UTC 26 April 2018 to 0000 UTC 28 April 2018
Forecast type: FROM: standard forecast or significant change
Winds: from the SSW (200 degrees) at 9 MPH (8 knots; 4.2 m/s)
Visibility: 6 or more miles (10+ km)
Clouds: scattered clouds at 1800 feet AGL
scattered clouds at 9000 feet AGL
Weather: no significant weather forecast for this period
Forecast for: MPTO (TOCUMEN , PA)
Text: TAF MPTO 261600Z 2618/2724 20008KT 9999 SCT018 SCT090
Forecast period: 1800 to 2200 UTC 26 April 2018
Forecast type: TEMPORARY: The following changes expected for less than half the time period
Visibility: 4 miles (7 km)
Ceiling: 8000 feet AGL
Clouds: scattered clouds at 1600 feet AGL
broken clouds at 8000 feet AGL
Weather: SHRA  (rain showers)
Forecast for: MPTO (TOCUMEN , PA)
Text: TAF MPTO 261600Z 2618/2724 20008KT 9999 SCT018 SCT090
Forecast period: 1800 to 2200 UTC 26 April 2018
Forecast type: TEMPORARY: The following changes expected for less than half the time period
Visibility: 4 miles (7 km)
Ceiling: 8000 feet AGL
Clouds: scattered clouds at 1600 feet AGL
broken clouds at 8000 feet AGL
Weather: SHRA  (rain showers)
Forecast for: MPTO (TOCUMEN , PA)
Text: TAF MPTO 261600Z 2618/2724 20008KT 9999 SCT018 SCT090
Forecast period: 0300 to 0700 UTC 27 April 2018
Forecast type: TEMPORARY: The following changes expected for less than half the time period
Winds: from the WNW (290 degrees) at 5 MPH (4 knots; 2.1 m/s)
Weather: no significant weather forecast for this period
Forecast for: MPTO (TOCUMEN , PA)
Text: TAF MPTO 261600Z 2618/2724 20008KT 9999 SCT018 SCT090
Forecast period: 0300 to 0700 UTC 27 April 2018
Forecast type: TEMPORARY: The following changes expected for less than half the time period
Winds: from the WNW (290 degrees) at 5 MPH (4 knots; 2.1 m/s)
Weather: no significant weather forecast for this period

 AIRPORT MAP

 RUNWAY INFORMATION
Runway 03L Runway length 8800 ft Runway width 200 ft
Runway elevation 56 ft Runway displaced threshold 0 ft Runway heading 31
Runway 21R Runway length 8800 ft Runway width 200 ft
Runway elevation 135 ft Runway displaced threshold 0 ft Runway heading 211
Runway 03R Runway length 10006 ft Runway width 148 ft
Runway elevation 22 ft Runway displaced threshold 0 ft Runway heading 30
Runway 21L Runway length 10006 ft Runway width 148 ft
Runway elevation 36 ft Runway displaced threshold 0 ft Runway heading 210

 AIRPORT FREQUENCIES
Type ACC Name PANAMA CON Frequency 133 MHZ
Type ACC Name PANAMA CON Frequency 133.3 MHZ
Type APP Name PANAMA APP Frequency 119.7 MHZ
Type CLD Name CLNC DEL Frequency 129.8 MHZ
Type GND Name GND Frequency 121.9 MHZ
Type MISC Name VFR ADVSY Frequency 121.2 MHZ
Type TWR Name TWR Frequency 118.1 MHZ

 AIRPORT NEAR NAVIGATION AIDS
Type NDB Name Tocumen Frequency 326 KHZ
Type VOR-DME Name Taboga Island Frequency 110000 KHZ
Type NDB Name Taboga Island Frequency 311 KHZ
Type VOR-DME Name Tocumen Frequency 117100 KHZ



v2.6.1